sensor_id;sensor_type;location;lat;lon;timestamp;P1;durP1;ratioP1;P2;durP2;ratioP2
44452;SDS011;30155;52.164;21.236;2024-01-07T00:03:58;16.50;;;9.20;;
44452;SDS011;30155;52.164;21.236;2024-01-07T00:08:51;12.40;;;9.30;;
44452;SDS011;30155;52.164;21.236;2024-01-07T00:13:44;16.00;;;9.20;;
44452;SDS011;30155;52.164;21.236;2024-01-07T00:18:37;17.70;;;9.50;;
44452;SDS011;30155;52.164;21.236;2024-01-07T00:23:31;16.50;;;9.80;;
44452;SDS011;30155;52.164;21.236;2024-01-07T00:28:23;15.90;;;9.70;;
44452;SDS011;30155;52.164;21.236;2024-01-07T00:33:16;16.70;;;10.10;;
44452;SDS011;30155;52.164;21.236;2024-01-07T00:38:09;21.20;;;10.40;;
44452;SDS011;30155;52.164;21.236;2024-01-07T00:43:02;15.60;;;10.20;;
44452;SDS011;30155;52.164;21.236;2024-01-07T00:47:54;17.50;;;9.80;;
44452;SDS011;30155;52.164;21.236;2024-01-07T00:52:47;20.60;;;10.20;;
44452;SDS011;30155;52.164;21.236;2024-01-07T00:57:40;16.10;;;9.90;;
44452;SDS011;30155;52.164;21.236;2024-01-07T01:02:33;18.10;;;9.70;;
44452;SDS011;30155;52.164;21.236;2024-01-07T01:07:27;18.80;;;10.00;;
44452;SDS011;30155;52.164;21.236;2024-01-07T01:12:20;19.30;;;10.00;;
44452;SDS011;30155;52.164;21.236;2024-01-07T01:17:12;18.30;;;10.50;;
44452;SDS011;30155;52.164;21.236;2024-01-07T01:22:05;18.70;;;10.80;;
44452;SDS011;30155;52.164;21.236;2024-01-07T01:26:58;18.80;;;10.70;;
44452;SDS011;30155;52.164;21.236;2024-01-07T01:31:51;19.10;;;10.40;;
44452;SDS011;30155;52.164;21.236;2024-01-07T01:36:44;17.40;;;9.90;;
44452;SDS011;30155;52.164;21.236;2024-01-07T01:41:37;14.90;;;9.40;;
44452;SDS011;30155;52.164;21.236;2024-01-07T01:46:29;17.10;;;9.90;;
44452;SDS011;30155;52.164;21.236;2024-01-07T01:51:23;18.40;;;12.20;;
44452;SDS011;30155;52.164;21.236;2024-01-07T01:56:19;18.00;;;11.10;;
44452;SDS011;30155;52.164;21.236;2024-01-07T02:01:13;17.50;;;10.20;;
44452;SDS011;30155;52.164;21.236;2024-01-07T02:06:06;18.90;;;10.90;;
44452;SDS011;30155;52.164;21.236;2024-01-07T02:11:13;14.50;;;9.50;;
44452;SDS011;30155;52.164;21.236;2024-01-07T02:16:12;14.00;;;9.00;;
44452;SDS011;30155;52.164;21.236;2024-01-07T02:21:06;16.50;;;9.80;;
44452;SDS011;30155;52.164;21.236;2024-01-07T02:26:00;14.70;;;8.90;;
44452;SDS011;30155;52.164;21.236;2024-01-07T02:30:52;14.10;;;8.60;;
44452;SDS011;30155;52.164;21.236;2024-01-07T02:35:45;17.20;;;8.90;;
44452;SDS011;30155;52.164;21.236;2024-01-07T02:40:39;15.00;;;8.60;;
44452;SDS011;30155;52.164;21.236;2024-01-07T02:45:31;12.80;;;7.30;;
44452;SDS011;30155;52.164;21.236;2024-01-07T02:50:24;15.20;;;7.90;;
44452;SDS011;30155;52.164;21.236;2024-01-07T02:55:17;11.90;;;7.40;;
44452;SDS011;30155;52.164;21.236;2024-01-07T03:00:11;12.80;;;7.80;;
44452;SDS011;30155;52.164;21.236;2024-01-07T03:05:04;11.20;;;7.20;;
44452;SDS011;30155;52.164;21.236;2024-01-07T03:09:57;12.90;;;8.50;;
44452;SDS011;30155;52.164;21.236;2024-01-07T03:14:50;14.00;;;7.80;;
44452;SDS011;30155;52.164;21.236;2024-01-07T03:19:42;13.30;;;8.50;;
44452;SDS011;30155;52.164;21.236;2024-01-07T03:24:36;16.20;;;8.50;;
44452;SDS011;30155;52.164;21.236;2024-01-07T03:29:29;15.20;;;9.30;;
44452;SDS011;30155;52.164;21.236;2024-01-07T03:34:22;13.40;;;8.60;;
44452;SDS011;30155;52.164;21.236;2024-01-07T03:39:14;16.90;;;7.90;;
44452;SDS011;30155;52.164;21.236;2024-01-07T03:44:07;12.90;;;8.20;;
44452;SDS011;30155;52.164;21.236;2024-01-07T03:49:00;15.00;;;9.10;;
44452;SDS011;30155;52.164;21.236;2024-01-07T03:53:53;12.80;;;8.30;;
44452;SDS011;30155;52.164;21.236;2024-01-07T03:58:45;15.70;;;10.90;;
44452;SDS011;30155;52.164;21.236;2024-01-07T04:03:38;14.60;;;9.90;;
44452;SDS011;30155;52.164;21.236;2024-01-07T04:08:31;14.60;;;8.90;;
44452;SDS011;30155;52.164;21.236;2024-01-07T04:13:24;17.60;;;9.40;;
44452;SDS011;30155;52.164;21.236;2024-01-07T04:18:16;11.70;;;8.40;;
44452;SDS011;30155;52.164;21.236;2024-01-07T04:23:09;12.90;;;7.70;;
44452;SDS011;30155;52.164;21.236;2024-01-07T04:28:02;15.40;;;8.90;;
44452;SDS011;30155;52.164;21.236;2024-01-07T04:32:55;14.70;;;8.90;;
44452;SDS011;30155;52.164;21.236;2024-01-07T04:37:48;16.80;;;9.00;;
44452;SDS011;30155;52.164;21.236;2024-01-07T04:42:41;15.20;;;10.10;;
44452;SDS011;30155;52.164;21.236;2024-01-07T04:47:34;16.00;;;9.40;;
44452;SDS011;30155;52.164;21.236;2024-01-07T04:52:27;15.00;;;8.80;;
44452;SDS011;30155;52.164;21.236;2024-01-07T04:57:20;16.20;;;8.20;;
44452;SDS011;30155;52.164;21.236;2024-01-07T05:02:13;12.60;;;8.40;;
44452;SDS011;30155;52.164;21.236;2024-01-07T05:07:06;17.00;;;9.60;;
44452;SDS011;30155;52.164;21.236;2024-01-07T05:11:59;16.70;;;9.10;;
44452;SDS011;30155;52.164;21.236;2024-01-07T05:16:53;13.70;;;7.80;;
44452;SDS011;30155;52.164;21.236;2024-01-07T05:21:46;13.60;;;7.70;;
44452;SDS011;30155;52.164;21.236;2024-01-07T05:26:42;15.30;;;9.00;;
44452;SDS011;30155;52.164;21.236;2024-01-07T05:31:36;11.30;;;7.40;;
44452;SDS011;30155;52.164;21.236;2024-01-07T05:36:28;12.90;;;7.60;;
44452;SDS011;30155;52.164;21.236;2024-01-07T05:41:22;14.40;;;8.50;;
44452;SDS011;30155;52.164;21.236;2024-01-07T05:46:14;13.90;;;8.20;;
44452;SDS011;30155;52.164;21.236;2024-01-07T05:51:07;15.70;;;9.30;;
44452;SDS011;30155;52.164;21.236;2024-01-07T05:56:00;14.20;;;8.40;;
44452;SDS011;30155;52.164;21.236;2024-01-07T06:00:53;15.00;;;9.00;;
44452;SDS011;30155;52.164;21.236;2024-01-07T06:05:46;13.70;;;8.30;;
44452;SDS011;30155;52.164;21.236;2024-01-07T06:10:39;15.20;;;8.90;;
44452;SDS011;30155;52.164;21.236;2024-01-07T06:15:32;16.80;;;10.70;;
44452;SDS011;30155;52.164;21.236;2024-01-07T06:20:25;12.40;;;8.10;;
44452;SDS011;30155;52.164;21.236;2024-01-07T06:25:18;12.80;;;8.30;;
44452;SDS011;30155;52.164;21.236;2024-01-07T06:30:11;13.90;;;9.30;;
44452;SDS011;30155;52.164;21.236;2024-01-07T06:35:05;13.20;;;8.80;;
44452;SDS011;30155;52.164;21.236;2024-01-07T06:39:57;13.70;;;9.10;;
44452;SDS011;30155;52.164;21.236;2024-01-07T06:44:50;11.70;;;7.70;;
44452;SDS011;30155;52.164;21.236;2024-01-07T06:49:43;14.10;;;8.50;;
44452;SDS011;30155;52.164;21.236;2024-01-07T06:54:36;18.10;;;9.00;;
44452;SDS011;30155;52.164;21.236;2024-01-07T06:59:30;13.20;;;8.60;;
44452;SDS011;30155;52.164;21.236;2024-01-07T07:04:23;15.60;;;10.60;;
44452;SDS011;30155;52.164;21.236;2024-01-07T07:09:16;12.90;;;8.70;;
44452;SDS011;30155;52.164;21.236;2024-01-07T07:14:08;14.10;;;8.60;;
44452;SDS011;30155;52.164;21.236;2024-01-07T07:19:01;13.20;;;8.80;;
44452;SDS011;30155;52.164;21.236;2024-01-07T07:23:54;13.60;;;8.30;;
44452;SDS011;30155;52.164;21.236;2024-01-07T07:28:47;13.40;;;8.70;;
44452;SDS011;30155;52.164;21.236;2024-01-07T07:33:40;14.10;;;8.90;;
44452;SDS011;30155;52.164;21.236;2024-01-07T07:38:33;11.60;;;9.10;;
44452;SDS011;30155;52.164;21.236;2024-01-07T07:43:26;13.80;;;8.20;;
44452;SDS011;30155;52.164;21.236;2024-01-07T07:48:19;12.50;;;8.30;;
44452;SDS011;30155;52.164;21.236;2024-01-07T07:53:12;14.70;;;9.80;;
44452;SDS011;30155;52.164;21.236;2024-01-07T07:58:05;14.90;;;9.50;;
44452;SDS011;30155;52.164;21.236;2024-01-07T08:02:58;12.00;;;7.90;;
44452;SDS011;30155;52.164;21.236;2024-01-07T08:07:51;9.60;;;6.70;;
44452;SDS011;30155;52.164;21.236;2024-01-07T08:12:45;8.80;;;5.70;;
44452;SDS011;30155;52.164;21.236;2024-01-07T08:17:37;11.70;;;7.50;;
44452;SDS011;30155;52.164;21.236;2024-01-07T08:22:30;16.30;;;8.40;;
44452;SDS011;30155;52.164;21.236;2024-01-07T08:27:23;9.10;;;6.20;;
44452;SDS011;30155;52.164;21.236;2024-01-07T08:32:16;8.80;;;6.30;;
44452;SDS011;30155;52.164;21.236;2024-01-07T08:37:10;9.10;;;6.10;;
44452;SDS011;30155;52.164;21.236;2024-01-07T08:42:03;8.80;;;5.60;;
44452;SDS011;30155;52.164;21.236;2024-01-07T08:46:56;10.30;;;5.90;;
44452;SDS011;30155;52.164;21.236;2024-01-07T08:51:51;7.10;;;5.80;;
44452;SDS011;30155;52.164;21.236;2024-01-07T08:56:44;7.70;;;5.70;;
44452;SDS011;30155;52.164;21.236;2024-01-07T09:01:37;9.20;;;5.70;;
44452;SDS011;30155;52.164;21.236;2024-01-07T09:06:30;9.10;;;6.10;;
44452;SDS011;30155;52.164;21.236;2024-01-07T09:11:23;7.70;;;6.10;;
44452;SDS011;30155;52.164;21.236;2024-01-07T09:16:17;8.10;;;5.70;;
44452;SDS011;30155;52.164;21.236;2024-01-07T09:21:10;8.70;;;5.30;;
44452;SDS011;30155;52.164;21.236;2024-01-07T09:26:02;9.90;;;6.20;;
44452;SDS011;30155;52.164;21.236;2024-01-07T09:30:55;6.50;;;4.70;;
44452;SDS011;30155;52.164;21.236;2024-01-07T09:35:51;22.60;;;14.90;;
44452;SDS011;30155;52.164;21.236;2024-01-07T09:40:52;9.20;;;6.90;;
44452;SDS011;30155;52.164;21.236;2024-01-07T09:45:46;8.20;;;5.90;;
44452;SDS011;30155;52.164;21.236;2024-01-07T09:50:39;11.90;;;7.60;;
44452;SDS011;30155;52.164;21.236;2024-01-07T09:55:37;7.20;;;5.60;;
44452;SDS011;30155;52.164;21.236;2024-01-07T10:00:39;12.40;;;5.80;;
44452;SDS011;30155;52.164;21.236;2024-01-07T10:05:32;10.10;;;7.00;;
44452;SDS011;30155;52.164;21.236;2024-01-07T10:10:24;12.00;;;8.10;;
44452;SDS011;30155;52.164;21.236;2024-01-07T10:15:18;9.30;;;7.10;;
44452;SDS011;30155;52.164;21.236;2024-01-07T10:20:10;9.20;;;6.70;;
44452;SDS011;30155;52.164;21.236;2024-01-07T10:25:05;8.70;;;6.20;;
44452;SDS011;30155;52.164;21.236;2024-01-07T10:29:58;9.80;;;5.90;;
44452;SDS011;30155;52.164;21.236;2024-01-07T10:34:51;8.40;;;5.80;;
44452;SDS011;30155;52.164;21.236;2024-01-07T10:39:50;9.00;;;6.20;;
44452;SDS011;30155;52.164;21.236;2024-01-07T10:44:43;8.40;;;5.40;;
44452;SDS011;30155;52.164;21.236;2024-01-07T10:49:36;9.60;;;6.10;;
44452;SDS011;30155;52.164;21.236;2024-01-07T10:54:36;10.20;;;6.50;;
44452;SDS011;30155;52.164;21.236;2024-01-07T10:59:29;13.60;;;8.70;;
44452;SDS011;30155;52.164;21.236;2024-01-07T11:09:33;12.00;;;7.70;;
44452;SDS011;30155;52.164;21.236;2024-01-07T11:14:35;7.70;;;5.60;;
44452;SDS011;30155;52.164;21.236;2024-01-07T11:19:53;8.20;;;6.20;;
44452;SDS011;30155;52.164;21.236;2024-01-07T11:30:22;10.70;;;7.50;;
44452;SDS011;30155;52.164;21.236;2024-01-07T11:35:15;7.10;;;5.30;;
44452;SDS011;30155;52.164;21.236;2024-01-07T11:40:08;10.30;;;7.10;;
44452;SDS011;30155;52.164;21.236;2024-01-07T11:45:03;9.50;;;6.60;;
44452;SDS011;30155;52.164;21.236;2024-01-07T11:49:56;8.10;;;6.00;;
44452;SDS011;30155;52.164;21.236;2024-01-07T11:54:49;9.80;;;7.10;;
44452;SDS011;30155;52.164;21.236;2024-01-07T11:59:42;8.60;;;7.20;;
44452;SDS011;30155;52.164;21.236;2024-01-07T12:04:36;12.70;;;7.80;;
44452;SDS011;30155;52.164;21.236;2024-01-07T12:09:29;10.70;;;7.80;;
44452;SDS011;30155;52.164;21.236;2024-01-07T12:14:21;10.10;;;7.10;;
44452;SDS011;30155;52.164;21.236;2024-01-07T12:19:14;10.30;;;7.20;;
44452;SDS011;30155;52.164;21.236;2024-01-07T12:24:07;10.20;;;6.30;;
44452;SDS011;30155;52.164;21.236;2024-01-07T12:29:00;8.40;;;6.40;;
44452;SDS011;30155;52.164;21.236;2024-01-07T12:38:51;11.30;;;6.10;;
44452;SDS011;30155;52.164;21.236;2024-01-07T12:43:46;9.40;;;6.70;;
44452;SDS011;30155;52.164;21.236;2024-01-07T12:48:39;11.20;;;7.10;;
44452;SDS011;30155;52.164;21.236;2024-01-07T12:53:32;13.00;;;6.90;;
44452;SDS011;30155;52.164;21.236;2024-01-07T12:58:24;11.10;;;7.40;;
44452;SDS011;30155;52.164;21.236;2024-01-07T13:03:17;11.80;;;6.90;;
44452;SDS011;30155;52.164;21.236;2024-01-07T13:08:11;9.60;;;6.60;;
44452;SDS011;30155;52.164;21.236;2024-01-07T13:13:06;9.20;;;6.80;;
44452;SDS011;30155;52.164;21.236;2024-01-07T13:18:06;9.90;;;6.40;;
44452;SDS011;30155;52.164;21.236;2024-01-07T13:22:59;10.40;;;7.10;;
44452;SDS011;30155;52.164;21.236;2024-01-07T13:27:52;9.50;;;6.10;;
44452;SDS011;30155;52.164;21.236;2024-01-07T13:32:45;6.70;;;6.00;;
44452;SDS011;30155;52.164;21.236;2024-01-07T13:37:38;8.60;;;6.10;;
44452;SDS011;30155;52.164;21.236;2024-01-07T13:42:32;9.50;;;6.70;;
44452;SDS011;30155;52.164;21.236;2024-01-07T13:47:26;12.90;;;7.60;;
44452;SDS011;30155;52.164;21.236;2024-01-07T13:52:19;9.50;;;6.70;;
44452;SDS011;30155;52.164;21.236;2024-01-07T13:57:12;11.30;;;7.20;;
44452;SDS011;30155;52.164;21.236;2024-01-07T14:02:06;10.30;;;7.00;;
44452;SDS011;30155;52.164;21.236;2024-01-07T14:07:00;11.70;;;6.90;;
44452;SDS011;30155;52.164;21.236;2024-01-07T14:11:53;11.10;;;7.20;;
44452;SDS011;30155;52.164;21.236;2024-01-07T14:16:46;10.80;;;6.90;;
44452;SDS011;30155;52.164;21.236;2024-01-07T14:21:39;10.00;;;6.50;;
44452;SDS011;30155;52.164;21.236;2024-01-07T14:26:31;13.50;;;7.60;;
44452;SDS011;30155;52.164;21.236;2024-01-07T14:31:24;10.40;;;7.10;;
44452;SDS011;30155;52.164;21.236;2024-01-07T14:36:17;10.50;;;6.40;;
44452;SDS011;30155;52.164;21.236;2024-01-07T14:41:10;11.60;;;6.30;;
44452;SDS011;30155;52.164;21.236;2024-01-07T14:46:03;12.40;;;7.10;;
44452;SDS011;30155;52.164;21.236;2024-01-07T14:50:56;14.60;;;7.70;;
44452;SDS011;30155;52.164;21.236;2024-01-07T14:55:49;15.70;;;9.20;;
44452;SDS011;30155;52.164;21.236;2024-01-07T15:00:41;11.10;;;6.80;;
44452;SDS011;30155;52.164;21.236;2024-01-07T15:05:34;14.30;;;8.20;;
44452;SDS011;30155;52.164;21.236;2024-01-07T15:10:27;11.00;;;6.80;;
44452;SDS011;30155;52.164;21.236;2024-01-07T15:15:20;14.90;;;6.80;;
44452;SDS011;30155;52.164;21.236;2024-01-07T15:20:15;11.00;;;6.60;;
44452;SDS011;30155;52.164;21.236;2024-01-07T15:25:08;23.90;;;10.80;;
44452;SDS011;30155;52.164;21.236;2024-01-07T15:30:01;21.80;;;10.90;;
44452;SDS011;30155;52.164;21.236;2024-01-07T15:34:56;13.30;;;7.80;;
44452;SDS011;30155;52.164;21.236;2024-01-07T15:39:49;22.80;;;10.50;;
44452;SDS011;30155;52.164;21.236;2024-01-07T15:44:42;22.00;;;9.90;;
44452;SDS011;30155;52.164;21.236;2024-01-07T15:49:35;16.10;;;10.10;;
44452;SDS011;30155;52.164;21.236;2024-01-07T15:54:28;18.80;;;8.90;;
44452;SDS011;30155;52.164;21.236;2024-01-07T15:59:22;14.30;;;7.00;;
44452;SDS011;30155;52.164;21.236;2024-01-07T16:04:14;23.50;;;12.70;;
44452;SDS011;30155;52.164;21.236;2024-01-07T16:09:13;13.20;;;7.30;;
44452;SDS011;30155;52.164;21.236;2024-01-07T16:14:06;16.50;;;9.10;;
44452;SDS011;30155;52.164;21.236;2024-01-07T16:18:58;19.80;;;9.70;;
44452;SDS011;30155;52.164;21.236;2024-01-07T16:23:52;15.10;;;9.20;;
44452;SDS011;30155;52.164;21.236;2024-01-07T16:28:45;16.70;;;8.90;;
44452;SDS011;30155;52.164;21.236;2024-01-07T16:33:38;26.10;;;14.60;;
44452;SDS011;30155;52.164;21.236;2024-01-07T16:38:31;12.40;;;7.80;;
44452;SDS011;30155;52.164;21.236;2024-01-07T16:43:26;20.30;;;9.70;;
44452;SDS011;30155;52.164;21.236;2024-01-07T16:48:22;17.30;;;11.40;;
44452;SDS011;30155;52.164;21.236;2024-01-07T16:53:35;13.60;;;7.90;;
44452;SDS011;30155;52.164;21.236;2024-01-07T16:58:28;15.50;;;7.20;;
44452;SDS011;30155;52.164;21.236;2024-01-07T17:03:24;12.20;;;7.00;;
44452;SDS011;30155;52.164;21.236;2024-01-07T17:08:24;13.20;;;7.10;;
44452;SDS011;30155;52.164;21.236;2024-01-07T17:13:27;12.20;;;7.50;;
44452;SDS011;30155;52.164;21.236;2024-01-07T17:18:20;17.80;;;8.60;;
44452;SDS011;30155;52.164;21.236;2024-01-07T17:23:15;18.30;;;8.90;;
44452;SDS011;30155;52.164;21.236;2024-01-07T17:28:18;16.00;;;7.90;;
44452;SDS011;30155;52.164;21.236;2024-01-07T17:33:12;15.00;;;8.50;;
44452;SDS011;30155;52.164;21.236;2024-01-07T17:45:14;14.50;;;7.90;;
44452;SDS011;30155;52.164;21.236;2024-01-07T17:51:19;15.60;;;8.50;;
44452;SDS011;30155;52.164;21.236;2024-01-07T17:57:02;17.70;;;9.50;;
44452;SDS011;30155;52.164;21.236;2024-01-07T18:01:55;15.50;;;8.20;;
44452;SDS011;30155;52.164;21.236;2024-01-07T18:06:49;17.30;;;9.90;;
44452;SDS011;30155;52.164;21.236;2024-01-07T18:11:42;17.10;;;9.40;;
44452;SDS011;30155;52.164;21.236;2024-01-07T18:16:36;16.50;;;8.80;;
44452;SDS011;30155;52.164;21.236;2024-01-07T18:21:30;17.10;;;9.40;;
44452;SDS011;30155;52.164;21.236;2024-01-07T18:26:22;20.80;;;10.00;;
44452;SDS011;30155;52.164;21.236;2024-01-07T18:31:17;15.40;;;9.60;;
44452;SDS011;30155;52.164;21.236;2024-01-07T18:36:12;19.20;;;8.40;;
44452;SDS011;30155;52.164;21.236;2024-01-07T18:41:06;20.60;;;10.20;;
44452;SDS011;30155;52.164;21.236;2024-01-07T18:46:00;16.30;;;8.30;;
44452;SDS011;30155;52.164;21.236;2024-01-07T18:50:54;18.50;;;8.90;;
44452;SDS011;30155;52.164;21.236;2024-01-07T18:55:47;22.00;;;11.70;;
44452;SDS011;30155;52.164;21.236;2024-01-07T19:00:39;23.40;;;12.40;;
44452;SDS011;30155;52.164;21.236;2024-01-07T19:05:32;39.90;;;16.10;;
44452;SDS011;30155;52.164;21.236;2024-01-07T19:10:25;28.30;;;14.40;;
44452;SDS011;30155;52.164;21.236;2024-01-07T19:15:18;42.60;;;19.40;;
44452;SDS011;30155;52.164;21.236;2024-01-07T19:20:16;29.20;;;13.90;;
44452;SDS011;30155;52.164;21.236;2024-01-07T19:25:10;26.80;;;13.30;;
44452;SDS011;30155;52.164;21.236;2024-01-07T19:30:05;35.10;;;18.60;;
44452;SDS011;30155;52.164;21.236;2024-01-07T19:34:59;24.40;;;13.70;;
44452;SDS011;30155;52.164;21.236;2024-01-07T19:39:52;33.10;;;17.30;;
44452;SDS011;30155;52.164;21.236;2024-01-07T19:44:48;18.60;;;9.40;;
44452;SDS011;30155;52.164;21.236;2024-01-07T19:49:41;21.00;;;9.60;;
44452;SDS011;30155;52.164;21.236;2024-01-07T19:54:34;19.00;;;11.50;;
44452;SDS011;30155;52.164;21.236;2024-01-07T19:59:26;19.00;;;9.70;;
44452;SDS011;30155;52.164;21.236;2024-01-07T20:04:19;20.10;;;12.20;;
44452;SDS011;30155;52.164;21.236;2024-01-07T20:09:15;17.40;;;10.80;;
44452;SDS011;30155;52.164;21.236;2024-01-07T20:14:08;20.20;;;9.60;;
44452;SDS011;30155;52.164;21.236;2024-01-07T20:19:04;17.20;;;9.80;;
44452;SDS011;30155;52.164;21.236;2024-01-07T20:23:57;19.20;;;11.90;;
44452;SDS011;30155;52.164;21.236;2024-01-07T20:28:51;20.90;;;11.40;;
44452;SDS011;30155;52.164;21.236;2024-01-07T20:33:45;16.60;;;9.10;;
44452;SDS011;30155;52.164;21.236;2024-01-07T20:38:39;18.40;;;9.90;;
44452;SDS011;30155;52.164;21.236;2024-01-07T20:43:32;23.90;;;11.80;;
44452;SDS011;30155;52.164;21.236;2024-01-07T20:48:25;20.70;;;11.00;;
44452;SDS011;30155;52.164;21.236;2024-01-07T20:53:21;22.40;;;10.80;;
44452;SDS011;30155;52.164;21.236;2024-01-07T20:58:14;23.50;;;11.50;;
44452;SDS011;30155;52.164;21.236;2024-01-07T21:03:07;19.70;;;10.00;;
44452;SDS011;30155;52.164;21.236;2024-01-07T21:08:02;19.60;;;10.10;;
44452;SDS011;30155;52.164;21.236;2024-01-07T21:12:55;17.00;;;8.50;;
44452;SDS011;30155;52.164;21.236;2024-01-07T21:17:50;16.80;;;8.40;;
44452;SDS011;30155;52.164;21.236;2024-01-07T21:22:43;18.60;;;10.00;;
44452;SDS011;30155;52.164;21.236;2024-01-07T21:27:36;22.50;;;8.70;;
44452;SDS011;30155;52.164;21.236;2024-01-07T21:32:29;19.90;;;9.80;;
44452;SDS011;30155;52.164;21.236;2024-01-07T21:37:24;17.50;;;8.40;;
44452;SDS011;30155;52.164;21.236;2024-01-07T21:42:17;19.30;;;9.10;;
44452;SDS011;30155;52.164;21.236;2024-01-07T21:47:10;17.20;;;7.80;;
44452;SDS011;30155;52.164;21.236;2024-01-07T21:52:05;17.10;;;8.30;;
44452;SDS011;30155;52.164;21.236;2024-01-07T21:56:58;19.50;;;10.00;;
44452;SDS011;30155;52.164;21.236;2024-01-07T22:01:50;15.20;;;8.90;;
44452;SDS011;30155;52.164;21.236;2024-01-07T22:06:43;17.80;;;8.40;;
44452;SDS011;30155;52.164;21.236;2024-01-07T22:11:36;15.90;;;7.90;;
44452;SDS011;30155;52.164;21.236;2024-01-07T22:16:31;17.70;;;9.20;;
44452;SDS011;30155;52.164;21.236;2024-01-07T22:21:24;19.00;;;9.00;;
44452;SDS011;30155;52.164;21.236;2024-01-07T22:26:17;20.40;;;10.10;;
44452;SDS011;30155;52.164;21.236;2024-01-07T22:36:29;17.10;;;8.40;;
44452;SDS011;30155;52.164;21.236;2024-01-07T22:41:23;20.70;;;8.70;;
44452;SDS011;30155;52.164;21.236;2024-01-07T22:46:16;18.10;;;9.40;;
44452;SDS011;30155;52.164;21.236;2024-01-07T22:51:09;11.90;;;6.90;;
44452;SDS011;30155;52.164;21.236;2024-01-07T22:56:02;17.10;;;8.40;;
44452;SDS011;30155;52.164;21.236;2024-01-07T23:00:55;18.90;;;9.70;;
44452;SDS011;30155;52.164;21.236;2024-01-07T23:05:48;17.30;;;8.00;;
44452;SDS011;30155;52.164;21.236;2024-01-07T23:10:41;24.20;;;9.20;;
44452;SDS011;30155;52.164;21.236;2024-01-07T23:15:34;16.20;;;7.60;;
44452;SDS011;30155;52.164;21.236;2024-01-07T23:20:31;19.00;;;8.20;;
44452;SDS011;30155;52.164;21.236;2024-01-07T23:25:26;14.80;;;8.30;;
44452;SDS011;30155;52.164;21.236;2024-01-07T23:30:20;17.70;;;8.40;;
44452;SDS011;30155;52.164;21.236;2024-01-07T23:35:13;19.80;;;8.90;;
44452;SDS011;30155;52.164;21.236;2024-01-07T23:40:07;18.90;;;9.10;;
44452;SDS011;30155;52.164;21.236;2024-01-07T23:45:00;19.10;;;9.00;;
44452;SDS011;30155;52.164;21.236;2024-01-07T23:49:53;21.10;;;10.10;;
44452;SDS011;30155;52.164;21.236;2024-01-07T23:54:47;17.40;;;8.40;;
44452;SDS011;30155;52.164;21.236;2024-01-07T23:59:43;18.60;;;8.50;;
